Time;durP1;ratioP1;P1;durP2;ratioP2;P2;SDS_P1;SDS_P2;PMS_P1;PMS_P2;Temp;Humidity;BMP_temperature;BMP_pressure;BME280_temperature;BME280_humidity;BME280_pressure;Samples;Min_cycle;Max_cycle;Signal;HPM_P1;HPM_P2
2023/01/05 11:51:36;;;;;;;19.70;3.15;;;11.20;99.90;;;;;;5009048;28;1235585;-68
2023/01/05 11:54:02;;;;;;;18.45;6.00;;;11.30;99.90;;;;;;5014312;28;20452;-64
2023/01/05 11:56:28;;;;;;;16.65;3.85;;;11.30;99.90;;;;;;5027185;28;20022;-68
2023/01/05 11:58:56;;;;;;;19.13;3.25;;;11.40;99.90;;;;;;5023411;28;20030;-68
2023/01/05 12:02:20;;;;;;;12.57;2.83;;;11.50;99.90;;;;;;5009555;28;20105;-64
2023/01/05 12:04:54;;;;;;;21.58;3.60;;;11.70;99.90;;;;;;4929931;29;20031;-63
2023/01/05 12:07:42;;;;;;;22.15;4.00;;;11.70;99.90;;;;;;4947443;29;20034;-66
2023/01/05 12:10:10;;;;;;;18.25;3.85;;;11.90;99.90;;;;;;4997269;28;20527;-65
2023/01/05 12:12:57;;;;;;;14.90;2.90;;;11.90;99.90;;;;;;5012693;28;20027;-66
2023/01/05 12:15:57;;;;;;;14.30;3.22;;;11.90;99.90;;;;;;4990274;28;20464;-68
2023/01/05 12:18:44;;;;;;;21.33;3.30;;;12.00;99.90;;;;;;5009135;28;20426;-64
2023/01/05 12:21:21;;;;;;;13.50;3.47;;;12.00;99.90;;;;;;5008884;28;20099;-62
2023/01/05 12:23:58;;;;;;;15.63;3.15;;;12.00;99.90;;;;;;5028168;28;20037;-63
2023/01/05 12:26:39;;;;;;;16.83;3.90;;;12.00;99.90;;;;;;5009989;28;20383;-67
2023/01/05 12:29:23;;;;;;;;;;;12.10;99.90;;;;;;5009036;28;20410;-67
2023/01/05 12:32:04;;;;;;;15.15;2.85;;;12.20;99.90;;;;;;5024859;28;19920;-67
2023/01/05 12:34:45;;;;;;;14.85;3.20;;;12.20;99.90;;;;;;5025647;28;20385;-64
2023/01/05 12:37:23;;;;;;;16.73;3.58;;;12.20;99.90;;;;;;5012335;28;20593;-62
2023/01/05 12:40:01;;;;;;;19.52;3.40;;;12.20;99.90;;;;;;5013773;28;20096;-63
2023/01/05 12:42:26;;;;;;;12.73;2.83;;;12.20;99.90;;;;;;5021300;28;20025;-62
2023/01/05 12:44:55;;;;;;;13.30;3.28;;;12.20;99.90;;;;;;5010992;28;20038;-61
2023/01/05 12:47:55;;;;;;;12.75;2.40;;;12.30;99.90;;;;;;5013800;28;20555;-64
2023/01/05 12:50:29;;;;;;;13.68;3.40;;;12.40;99.90;;;;;;5008805;28;20083;-65
2023/01/05 12:53:22;;;;;;;16.33;2.92;;;12.40;99.90;;;;;;5027355;28;20105;-62
2023/01/05 12:55:55;;;;;;;10.75;3.03;;;12.50;99.90;;;;;;5024839;28;20036;-64
2023/01/05 12:59:01;;;;;;;16.08;4.00;;;12.50;99.90;;;;;;5007298;28;20088;-62
2023/01/05 13:01:30;;;;;;;11.63;3.13;;;12.50;99.90;;;;;;4984118;28;20486;-61
2023/01/05 13:04:22;;;;;;;13.48;2.90;;;12.40;99.90;;;;;;5006649;28;20123;-61
2023/01/05 13:06:51;;;;;;;13.52;3.15;;;12.40;99.90;;;;;;4980390;28;20483;-62
2023/01/05 13:09:24;;;;;;;13.23;3.50;;;12.30;99.90;;;;;;5001464;28;20030;-62
2023/01/05 13:12:12;;;;;;;17.05;3.58;;;12.20;99.90;;;;;;4997038;28;20034;-62
2023/01/05 13:14:51;;;;;;;14.05;2.67;;;12.10;99.90;;;;;;4994314;28;20101;-62
2023/01/05 13:17:28;;;;;;;14.05;3.67;;;12.10;99.90;;;;;;4993492;28;20061;-61
2023/01/05 13:20:21;;;;;;;11.10;3.10;;;12.10;99.90;;;;;;5014331;28;20026;-63
2023/01/05 13:22:50;;;;;;;13.10;3.63;;;12.10;99.90;;;;;;4996149;28;20030;-64
2023/01/05 13:25:19;;;;;;;17.70;3.47;;;12.10;99.90;;;;;;5014634;28;20026;-62
2023/01/05 13:27:45;;;;;;;12.30;2.95;;;12.10;99.90;;;;;;4996005;28;20030;-62
2023/01/05 13:30:24;;;;;;;15.63;4.57;;;12.10;99.90;;;;;;5008838;28;20034;-61
2023/01/05 13:33:09;;;;;;;18.23;3.67;;;12.10;99.90;;;;;;4993920;28;20038;-62
2023/01/05 13:36:16;;;;;;;10.88;3.28;;;12.20;99.90;;;;;;5005894;28;20443;-63
2023/01/05 13:39:10;;;;;;;11.38;3.22;;;12.20;99.90;;;;;;4912800;29;20032;-61
2023/01/05 13:42:04;;;;;;;16.20;3.47;;;12.20;99.90;;;;;;4993865;28;20487;-62
2023/01/05 13:44:50;;;;;;;19.20;4.03;;;12.20;99.90;;;;;;4993733;28;20030;-62
2023/01/05 13:47:52;;;;;;;12.32;3.35;;;12.30;99.90;;;;;;4993907;28;20035;-65
2023/01/05 13:50:27;;;;;;;12.48;3.40;;;12.20;99.90;;;;;;4975283;28;20058;-63
2023/01/05 13:53:05;;;;;;;10.10;3.13;;;12.20;99.90;;;;;;5004422;28;20029;-63
2023/01/05 13:55:39;;;;;;;13.68;3.00;;;12.20;99.90;;;;;;5013611;28;20030;-62
2023/01/05 13:58:33;;;;;;;11.40;2.90;;;12.30;99.90;;;;;;4985735;28;20022;-61
2023/01/05 14:01:00;;;;;;;9.95;3.88;;;12.30;99.90;;;;;;4993215;28;20101;-62
2023/01/05 14:03:34;;;;;;;10.00;2.88;;;12.30;99.90;;;;;;4993603;28;20543;-63
2023/01/05 14:06:04;;;;;;;13.55;3.50;;;12.40;99.90;;;;;;4975881;28;20022;-63
2023/01/05 14:08:33;;;;;;;21.80;4.53;;;12.40;99.90;;;;;;4994020;28;20018;-64
2023/01/05 14:11:13;;;;;;;9.50;3.45;;;12.40;99.90;;;;;;4992468;28;20044;-65
2023/01/05 14:13:43;;;;;;;14.25;3.55;;;12.30;99.90;;;;;;4991091;28;20027;-62
2023/01/05 14:16:39;;;;;;;22.17;4.50;;;12.30;99.90;;;;;;4992881;28;20033;-65
2023/01/05 14:19:23;;;;;;;15.32;3.58;;;12.20;99.90;;;;;;4983664;28;20281;-63
2023/01/05 14:21:49;;;;;;;16.90;3.60;;;12.10;99.90;;;;;;4993543;28;20021;-63
2023/01/05 14:24:37;;;;;;;21.75;4.00;;;12.10;99.90;;;;;;4993400;28;20080;-62
2023/01/05 14:27:05;;;;;;;19.25;3.92;;;12.00;99.90;;;;;;4995343;28;20138;-62
2023/01/05 14:30:18;;;;;;;13.73;4.00;;;12.00;99.90;;;;;;5013127;28;20022;-63
2023/01/05 14:32:44;;;;;;;18.92;4.03;;;12.00;99.90;;;;;;4911651;29;20044;-63
2023/01/05 14:35:30;;;;;;;15.13;3.63;;;11.90;99.90;;;;;;4983004;28;20498;-66
2023/01/05 14:38:06;;;;;;;12.88;3.10;;;12.00;99.90;;;;;;4993059;28;20033;-65
2023/01/05 14:40:34;;;;;;;11.18;3.25;;;12.00;99.90;;;;;;4991762;28;20082;-63
2023/01/05 14:43:04;;;;;;;13.23;3.33;;;12.00;99.90;;;;;;4993003;28;20125;-62
2023/01/05 14:45:33;;;;;;;13.15;3.35;;;12.00;99.90;;;;;;4980998;28;20029;-62
2023/01/05 14:48:02;;;;;;;16.30;4.82;;;12.00;99.90;;;;;;4984011;28;20042;-64
2023/01/05 14:50:35;;;;;;;14.85;3.40;;;11.90;99.90;;;;;;4974392;28;20149;-62
2023/01/05 14:53:02;;;;;;;12.63;3.60;;;11.90;99.90;;;;;;5003466;28;20030;-65
2023/01/05 14:55:31;;;;;;;13.00;3.22;;;11.90;99.90;;;;;;5012681;28;20061;-65
2023/01/05 14:58:00;;;;;;;18.30;3.85;;;11.90;99.90;;;;;;4982714;28;20374;-62
2023/01/05 15:01:01;;;;;;;20.35;4.35;;;11.80;99.90;;;;;;4991414;28;20030;-63
2023/01/05 15:03:54;;;;;;;15.07;4.15;;;11.80;99.90;;;;;;4913391;29;20028;-63
2023/01/05 15:06:43;;;;;;;14.15;3.00;;;11.80;99.90;;;;;;4988116;28;20042;-62
2023/01/05 15:09:20;;;;;;;18.58;4.50;;;11.80;99.90;;;;;;4991741;28;20029;-63
2023/01/05 15:12:10;;;;;;;16.23;4.28;;;11.70;99.90;;;;;;4973557;28;20034;-63
2023/01/05 15:14:52;;;;;;;22.55;4.38;;;11.70;99.90;;;;;;4991218;28;20037;-62
2023/01/05 15:17:46;;;;;;;16.70;3.65;;;11.60;99.90;;;;;;4975730;28;20042;-63
2023/01/05 15:20:15;;;;;;;18.58;3.63;;;11.60;99.90;;;;;;4992407;28;20049;-63
2023/01/05 15:22:58;;;;;;;21.35;3.67;;;11.50;99.90;;;;;;4991682;28;20109;-64
2023/01/05 15:25:41;;;;;;;12.98;3.97;;;11.50;99.90;;;;;;4992281;28;20026;-64
2023/01/05 15:28:26;;;;;;;15.38;3.40;;;11.50;99.90;;;;;;4993563;28;20454;-63
2023/01/05 15:31:22;;;;;;;12.82;3.35;;;11.50;99.90;;;;;;4999435;28;20088;-66
2023/01/05 15:34:05;;;;;;;14.23;3.50;;;11.40;99.90;;;;;;4995757;28;20610;-63
2023/01/05 15:36:37;;;;;;;14.93;4.68;;;11.40;99.90;;;;;;5011656;28;20427;-63
2023/01/05 15:39:29;;;;;;;16.02;3.70;;;11.40;99.90;;;;;;5012414;28;20418;-62
2023/01/05 15:41:56;;;;;;;;;;;11.40;99.90;;;;;;5011344;28;20259;-63
2023/01/05 15:44:23;;;;;;;15.30;3.95;;;11.40;99.90;;;;;;5010747;28;20005;-66
2023/01/05 15:46:49;;;;;;;21.38;5.03;;;11.40;99.90;;;;;;5001702;28;20083;-63
2023/01/05 15:49:23;;;;;;;17.58;3.92;;;11.40;99.90;;;;;;5010577;28;20088;-64
2023/01/05 15:51:51;;;;;;;24.45;4.57;;;11.30;99.90;;;;;;5011625;28;20486;-63
2023/01/05 15:54:26;;;;;;;23.83;4.32;;;11.30;99.90;;;;;;5010709;28;20030;-63
2023/01/05 15:56:52;;;;;;;20.85;4.55;;;11.30;99.90;;;;;;5009414;28;20042;-62
2023/01/05 15:59:29;;;;;;;23.92;5.82;;;11.20;99.90;;;;;;5012058;28;20026;-66
2023/01/05 16:01:55;;;;;;;19.98;4.43;;;11.10;99.90;;;;;;5007668;28;20033;-66
2023/01/05 16:04:21;;;;;;;17.98;3.75;;;11.10;99.90;;;;;;4991060;28;20068;-63
2023/01/05 16:06:51;;;;;;;12.85;3.33;;;11.10;99.90;;;;;;4992280;28;20062;-64
2023/01/05 16:09:22;;;;;;;16.33;3.90;;;11.00;99.90;;;;;;5002201;28;20038;-63
2023/01/05 16:11:48;;;;;;;;;;;11.00;99.90;;;;;;4990845;28;20101;-63
2023/01/05 16:14:27;;;;;;;20.23;4.45;;;11.00;99.90;;;;;;4990507;28;20009;-63
2023/01/05 16:17:15;;;;;;;22.80;5.03;;;10.90;99.90;;;;;;4991633;28;20030;-64
2023/01/05 16:19:54;;;;;;;17.88;3.95;;;10.90;99.90;;;;;;4990312;28;20551;-63
2023/01/05 16:22:42;;;;;;;17.00;3.80;;;10.90;99.90;;;;;;4992006;28;20568;-63
2023/01/05 16:25:21;;;;;;;16.25;4.07;;;11.00;99.90;;;;;;4990557;28;20034;-64
2023/01/05 16:27:57;;;;;;;26.77;7.82;;;11.00;99.90;;;;;;4997421;28;20030;-66
2023/01/05 16:30:32;;;;;;;28.83;6.25;;;11.10;99.90;;;;;;5002697;28;20038;-67
2023/01/05 16:33:02;;;;;;;19.95;4.72;;;11.10;99.90;;;;;;5005408;28;20022;-64
2023/01/05 16:35:46;;;;;;;17.85;4.60;;;11.10;99.90;;;;;;4991326;28;20434;-68
2023/01/05 16:38:15;;;;;;;16.70;4.88;;;11.00;99.90;;;;;;5009112;28;20099;-63
2023/01/05 16:40:50;;;;;;;21.42;4.93;;;11.00;99.90;;;;;;5013792;28;20033;-66
2023/01/05 16:43:37;;;;;;;18.70;5.20;;;11.00;99.90;;;;;;5014188;28;20033;-63
2023/01/05 16:46:17;;;;;;;16.90;4.90;;;11.00;99.90;;;;;;5013412;28;20485;-65
2023/01/05 16:48:48;;;;;;;19.20;4.88;;;11.00;99.90;;;;;;4980023;28;20026;-63
2023/01/05 16:51:18;;;;;;;25.08;6.00;;;10.90;99.90;;;;;;4994910;28;20434;-63
2023/01/05 16:53:55;;;;;;;22.50;6.05;;;10.90;99.90;;;;;;4998576;28;20387;-63
2023/01/05 16:56:33;;;;;;;23.13;7.22;;;10.90;99.90;;;;;;5010670;28;20010;-64
2023/01/05 16:59:00;;;;;;;20.20;6.50;;;10.80;99.90;;;;;;5005744;28;20680;-64
2023/01/05 17:01:43;;;;;;;17.90;5.07;;;10.80;99.90;;;;;;5001026;28;20015;-65
2023/01/05 17:04:11;;;;;;;19.33;5.00;;;10.80;99.90;;;;;;5002259;28;20101;-64
2023/01/05 17:06:37;;;;;;;23.75;5.95;;;10.80;99.90;;;;;;5003163;28;20494;-65
2023/01/05 17:09:11;;;;;;;19.83;6.00;;;10.70;99.90;;;;;;5000292;28;20023;-64
2023/01/05 17:11:37;;;;;;;16.55;4.35;;;10.70;99.90;;;;;;5002655;28;20036;-65
2023/01/05 17:14:05;;;;;;;18.08;4.38;;;10.80;99.90;;;;;;5000517;28;20067;-63
2023/01/05 17:16:31;;;;;;;19.75;4.60;;;10.80;99.90;;;;;;4991516;28;20030;-63
2023/01/05 17:18:57;;;;;;;18.13;4.85;;;10.80;99.90;;;;;;5006176;28;20021;-66
2023/01/05 19:57:27;;;;;;;21.50;10.32;;;10.10;99.90;;;;;;5003783;28;1240401;-62
2023/01/05 19:59:53;;;;;;;27.40;12.05;;;10.10;99.90;;;;;;5028809;28;20034;-69
2023/01/05 20:02:19;;;;;;;23.25;11.00;;;10.10;99.90;;;;;;5028297;28;20433;-67
2023/01/05 20:04:47;;;;;;;30.35;11.68;;;10.30;99.90;;;;;;5028533;28;20037;-66
2023/01/05 20:07:13;;;;;;;26.83;12.65;;;10.40;99.90;;;;;;5009401;28;20450;-70
2023/01/05 20:09:39;;;;;;;27.45;13.30;;;10.50;99.90;;;;;;5014647;28;20029;-67
2023/01/05 20:12:04;;;;;;;33.72;14.75;;;10.60;99.90;;;;;;5029467;28;20466;-66
2023/01/05 20:14:31;;;;;;;36.70;14.65;;;10.60;99.90;;;;;;5028074;28;20026;-67
2023/01/05 20:17:02;;;;;;;27.95;12.43;;;10.70;99.90;;;;;;5028524;28;20502;-67
2023/01/05 20:19:31;;;;;;;30.15;12.70;;;10.70;99.90;;;;;;5028817;28;20046;-69
2023/01/05 20:21:58;;;;;;;30.58;13.10;;;10.80;99.90;;;;;;5029251;28;20069;-67
2023/01/05 20:24:27;;;;;;;32.45;15.57;;;10.80;99.90;;;;;;5028314;28;20029;-65
2023/01/05 20:27:00;;;;;;;28.45;13.10;;;10.90;99.90;;;;;;5028652;28;20030;-65
2023/01/05 20:29:26;;;;;;;37.97;17.20;;;11.00;99.90;;;;;;5010777;28;20348;-71
2023/01/05 20:32:00;;;;;;;36.13;16.58;;;11.00;99.90;;;;;;5027642;28;20025;-69
2023/01/05 20:34:30;;;;;;;33.22;16.40;;;11.10;99.90;;;;;;5010373;28;20021;-66
2023/01/05 20:36:57;;;;;;;45.88;18.67;;;11.10;99.90;;;;;;5028369;28;20482;-65
2023/01/05 20:39:22;;;;;;;31.92;15.98;;;11.10;99.90;;;;;;5027811;28;20116;-65
2023/01/05 20:41:50;;;;;;;37.80;17.48;;;11.20;99.90;;;;;;5028149;28;20222;-64
2023/01/05 20:44:19;;;;;;;32.67;16.13;;;11.20;99.90;;;;;;5010758;28;20367;-66
2023/01/05 20:46:47;;;;;;;39.92;17.70;;;11.20;99.90;;;;;;5027601;28;20375;-67
2023/01/05 20:49:13;;;;;;;33.40;17.70;;;11.20;99.90;;;;;;5027869;28;20021;-68
